Ana Sayfa
METAR-TAF:

METAR-TAF

Havaalanları :

Northeast Alabama Regional Airport

Gadsden, Alabama, Amerika Birleşik Devletleri

Enlem: 33-58N, Boylam: 086-05W, yükseklik: 173 m

Güncel hava durumu gözlemi

Rapor saat 16:56 UTC de 30 dakika önce yapıldı.
Rüzgar değişken yönden 4 kt
Sıcaklık 32°C
Nem 38%
Basınç 1016 hPa
Görüş mesafesi: 16.1 km

METAR: KGAD 251656Z AUTO VRB04KT 10SM 32/16 A2999 RMK AO2 SLP154 T03220156 $

Saat: 12:26 (17:26 UTC)


TAF: eksik

4.000'den fazla havaalanı için hava durumu gözlemleri ve tahminleri (METAR ve TAF raporları).

Kullanılabilir istasyonlar harita üzerinde sarı ve kırmızı noktalarla gösterilir.

İstasyonun adını görmek için fareyi noktanın üzerinde gezdirin.

Sonrasında hava gözlem ve tahminlerini görmek için tıklayın.

Haritayı değiştirmek için: yaklaştırmak için siyah artı işaretli yeşil düğmeye ve uzaklaştırmak için de eksi işaretli düğmeye hızla tıklayın; bitişik haritalar için yeşil okları kullanın.


METAR-TAF: